createdAt,value
2023-06-30T00:01:49.497Z,99.90
2023-06-30T00:04:23.717Z,99.90
2023-06-30T00:06:52.031Z,99.90
2023-06-30T00:09:22.718Z,99.90
2023-06-30T00:11:52.658Z,99.90
2023-06-30T00:14:21.574Z,99.90
2023-06-30T00:16:50.880Z,99.90
2023-06-30T00:19:20.062Z,99.90
2023-06-30T00:21:49.239Z,99.90
2023-06-30T00:24:16.577Z,99.90
2023-06-30T00:26:43.909Z,99.90
2023-06-30T00:29:11.714Z,99.90
2023-06-30T00:31:38.909Z,99.90
2023-06-30T00:34:06.210Z,99.90
2023-06-30T00:36:34.537Z,99.90
2023-06-30T00:39:01.994Z,99.90
2023-06-30T00:41:29.921Z,99.90
2023-06-30T00:43:59.329Z,99.90
2023-06-30T00:46:27.093Z,99.90
2023-06-30T00:48:56.358Z,99.90
2023-06-30T00:51:23.745Z,99.90
2023-06-30T00:53:51.191Z,99.90
2023-06-30T00:56:19.397Z,99.90
2023-06-30T00:58:46.659Z,99.90
2023-06-30T01:01:23.349Z,99.90
2023-06-30T01:04:13.764Z,99.90
2023-06-30T01:06:53.797Z,99.90
2023-06-30T01:09:25.050Z,99.90
2023-06-30T01:11:52.651Z,99.90
2023-06-30T01:14:21.240Z,99.90
2023-06-30T01:16:50.149Z,99.90
2023-06-30T01:19:33.911Z,99.90
2023-06-30T01:22:14.583Z,99.90
2023-06-30T01:24:45.027Z,99.90
2023-06-30T01:27:13.685Z,99.90
2023-06-30T01:29:44.964Z,99.90
2023-06-30T01:32:18.027Z,99.90
2023-06-30T01:34:48.686Z,99.90
2023-06-30T01:37:16.169Z,99.90
2023-06-30T01:39:43.359Z,99.90
2023-06-30T01:42:11.277Z,99.90
2023-06-30T01:44:39.200Z,99.90
2023-06-30T01:47:08.114Z,99.90
2023-06-30T01:49:35.911Z,99.90
2023-06-30T01:52:04.019Z,99.90
2023-06-30T01:54:31.169Z,99.90
2023-06-30T01:56:59.603Z,99.90
2023-06-30T01:59:27.715Z,99.90
2023-06-30T02:01:55.035Z,99.90
2023-06-30T02:04:22.407Z,99.90
2023-06-30T02:06:49.710Z,99.90
2023-06-30T02:09:17.317Z,99.90
2023-06-30T02:11:45.275Z,99.90
2023-06-30T02:14:16.642Z,99.90
2023-06-30T02:16:44.267Z,99.90
2023-06-30T02:19:11.598Z,99.90
2023-06-30T02:21:38.884Z,99.90
2023-06-30T02:24:06.537Z,99.90
2023-06-30T02:26:33.696Z,99.90
2023-06-30T02:29:01.069Z,99.90
2023-06-30T02:31:28.272Z,99.90
2023-06-30T02:33:55.575Z,99.90
2023-06-30T02:36:22.862Z,99.90
2023-06-30T02:38:50.072Z,99.90
2023-06-30T02:41:17.312Z,99.90
2023-06-30T02:43:44.801Z,99.90
2023-06-30T02:46:12.295Z,99.90
2023-06-30T02:48:40.068Z,99.90
2023-06-30T02:51:07.337Z,99.90
2023-06-30T02:53:35.053Z,99.90
2023-06-30T02:56:02.299Z,99.90
2023-06-30T02:58:37.473Z,99.90
2023-06-30T03:01:07.007Z,99.90
2023-06-30T03:03:36.956Z,99.90
2023-06-30T03:06:05.281Z,99.90
2023-06-30T03:08:35.411Z,99.90
2023-06-30T03:11:02.651Z,99.90
2023-06-30T03:13:29.824Z,99.90
2023-06-30T03:15:57.354Z,99.90
2023-06-30T03:18:25.129Z,99.90
2023-06-30T03:20:52.441Z,99.90
2023-06-30T03:23:20.755Z,99.90
2023-06-30T03:25:48.885Z,99.90
2023-06-30T03:28:16.272Z,99.90
2023-06-30T03:30:43.553Z,99.90
2023-06-30T03:33:14.582Z,99.90
2023-06-30T03:35:43.410Z,99.90
2023-06-30T03:38:14.520Z,99.90
2023-06-30T03:40:42.334Z,99.90
2023-06-30T03:43:11.628Z,99.90
2023-06-30T03:45:39.661Z,99.90
2023-06-30T03:48:07.433Z,99.90
2023-06-30T03:50:34.974Z,99.90
2023-06-30T03:53:02.996Z,99.90
2023-06-30T03:55:30.622Z,99.90
2023-06-30T03:57:58.193Z,99.90
2023-06-30T04:00:26.043Z,99.90
2023-06-30T04:02:53.878Z,99.90
2023-06-30T04:05:21.592Z,99.90
2023-06-30T04:07:49.374Z,99.90
2023-06-30T04:10:17.201Z,99.90
2023-06-30T04:12:45.064Z,99.90
2023-06-30T04:15:12.656Z,99.90
2023-06-30T04:17:40.555Z,99.90
2023-06-30T04:20:11.031Z,99.90
2023-06-30T04:22:38.806Z,99.90
2023-06-30T04:25:07.697Z,99.90
2023-06-30T04:27:36.354Z,99.90
2023-06-30T04:30:04.812Z,99.90
2023-06-30T04:32:32.521Z,99.90
2023-06-30T04:35:00.381Z,99.90
2023-06-30T04:37:30.288Z,99.90
2023-06-30T04:39:59.299Z,99.90
2023-06-30T04:42:30.378Z,99.90
2023-06-30T04:44:58.550Z,99.90
2023-06-30T04:47:28.748Z,99.90
2023-06-30T04:50:03.102Z,99.90
2023-06-30T04:52:39.346Z,99.90
2023-06-30T04:55:12.496Z,99.90
2023-06-30T04:57:46.719Z,99.90
2023-06-30T05:00:17.965Z,99.90
2023-06-30T05:02:46.220Z,99.90
2023-06-30T05:05:14.083Z,99.90
2023-06-30T05:08:08.935Z,99.90
2023-06-30T05:10:36.990Z,99.90
2023-06-30T05:13:04.644Z,99.90
2023-06-30T05:15:34.450Z,99.90
2023-06-30T05:18:02.296Z,99.90
2023-06-30T05:20:30.805Z,99.90
2023-06-30T05:22:58.456Z,99.90
2023-06-30T05:25:27.276Z,99.90
2023-06-30T05:27:57.644Z,99.90
2023-06-30T05:30:25.587Z,99.90
2023-06-30T05:32:53.571Z,99.90
2023-06-30T05:35:21.562Z,99.90
2023-06-30T05:37:49.064Z,99.90
2023-06-30T05:40:16.890Z,99.90
2023-06-30T05:42:44.469Z,99.90
2023-06-30T05:45:15.933Z,99.90
2023-06-30T05:47:45.811Z,99.90
2023-06-30T05:50:13.402Z,99.90
2023-06-30T05:52:41.005Z,99.90
2023-06-30T05:55:09.184Z,99.90
2023-06-30T05:57:36.576Z,99.90
2023-06-30T06:00:05.715Z,99.90
2023-06-30T06:02:39.665Z,99.90
2023-06-30T06:05:09.934Z,99.90
2023-06-30T06:07:41.727Z,99.90
2023-06-30T06:10:09.812Z,99.90
2023-06-30T06:12:40.318Z,99.90
2023-06-30T06:15:09.319Z,99.90
2023-06-30T06:17:37.102Z,99.90
2023-06-30T06:20:05.272Z,99.90
2023-06-30T06:22:33.063Z,99.90
2023-06-30T06:25:00.693Z,99.90
2023-06-30T06:27:30.082Z,99.90
2023-06-30T06:29:57.632Z,99.90
2023-06-30T06:32:25.316Z,99.90
2023-06-30T06:34:52.840Z,99.90
2023-06-30T06:37:21.016Z,99.90
2023-06-30T06:39:48.503Z,99.90
2023-06-30T06:42:15.883Z,99.90
2023-06-30T06:44:43.341Z,99.90
2023-06-30T06:48:07.248Z,99.90
2023-06-30T06:50:34.676Z,99.90
2023-06-30T06:53:02.121Z,99.90
2023-06-30T06:55:29.729Z,99.90
2023-06-30T06:57:57.180Z,99.90
2023-06-30T07:00:24.569Z,99.90
2023-06-30T07:02:53.692Z,99.90
2023-06-30T07:05:21.359Z,99.90
2023-06-30T07:07:49.005Z,99.90
2023-06-30T07:10:16.872Z,99.90
2023-06-30T07:12:44.441Z,99.90
2023-06-30T07:15:12.077Z,99.90
2023-06-30T07:17:39.588Z,99.90
2023-06-30T07:20:07.888Z,99.90
2023-06-30T07:22:35.517Z,99.90
2023-06-30T07:25:04.854Z,99.90
2023-06-30T07:27:32.637Z,99.90
2023-06-30T07:30:00.119Z,99.90
2023-06-30T07:32:28.739Z,99.90
2023-06-30T07:34:56.201Z,99.90
2023-06-30T07:37:23.632Z,99.90
2023-06-30T07:39:50.972Z,99.90
2023-06-30T07:42:18.453Z,99.90
2023-06-30T07:44:46.079Z,99.90
2023-06-30T07:47:13.736Z,99.90
2023-06-30T07:49:41.293Z,99.90
2023-06-30T07:52:08.824Z,99.90
2023-06-30T07:54:36.214Z,99.90
2023-06-30T07:57:03.781Z,99.90
2023-06-30T07:59:31.349Z,99.90
2023-06-30T08:01:58.948Z,99.90
2023-06-30T08:04:27.062Z,99.90
2023-06-30T08:06:55.843Z,99.90
2023-06-30T08:09:23.779Z,99.90
2023-06-30T08:11:51.236Z,99.90
2023-06-30T08:14:18.656Z,99.90
2023-06-30T08:16:46.504Z,99.90
2023-06-30T08:19:43.586Z,99.90
2023-06-30T08:22:02.997Z,99.90
2023-06-30T08:24:30.545Z,99.90
2023-06-30T08:26:57.971Z,99.90
2023-06-30T08:29:25.458Z,99.90
2023-06-30T08:31:57.545Z,99.90
2023-06-30T08:34:30.856Z,99.90
2023-06-30T08:36:58.377Z,99.90
2023-06-30T08:39:31.455Z,99.90
2023-06-30T08:42:01.405Z,99.90
2023-06-30T08:44:32.797Z,99.90
2023-06-30T08:47:03.293Z,99.90
2023-06-30T08:49:33.090Z,99.90
2023-06-30T08:52:02.031Z,99.90
2023-06-30T08:54:33.170Z,99.90
2023-06-30T08:57:04.794Z,99.90
2023-06-30T08:59:32.517Z,99.90
2023-06-30T09:02:00.740Z,99.90
2023-06-30T09:04:29.637Z,99.90
2023-06-30T09:07:00.456Z,99.90
2023-06-30T09:09:43.954Z,99.90
2023-06-30T09:12:12.210Z,99.90
2023-06-30T09:14:42.295Z,99.90
2023-06-30T09:17:09.821Z,99.90
2023-06-30T09:19:37.684Z,99.90
2023-06-30T09:22:53.073Z,99.90
2023-06-30T09:24:55.285Z,99.90
2023-06-30T09:27:23.015Z,99.90
2023-06-30T09:29:56.091Z,99.90
2023-06-30T09:32:32.294Z,99.90
2023-06-30T09:35:10.351Z,99.90
2023-06-30T09:37:45.513Z,99.90
2023-06-30T09:40:16.493Z,99.90
2023-06-30T09:42:48.302Z,99.90
2023-06-30T09:45:15.946Z,99.90
2023-06-30T09:47:43.667Z,99.90
2023-06-30T09:50:12.118Z,99.90
2023-06-30T09:52:39.972Z,99.90
2023-06-30T09:55:11.298Z,99.90
2023-06-30T09:57:42.329Z,99.90
2023-06-30T10:00:25.451Z,99.90
2023-06-30T10:03:06.119Z,99.90
2023-06-30T10:05:35.352Z,99.90
2023-06-30T10:08:03.967Z,99.90
2023-06-30T10:10:32.950Z,99.90
2023-06-30T10:13:00.758Z,99.90
2023-06-30T10:15:28.512Z,99.90
2023-06-30T10:17:58.847Z,99.90
2023-06-30T10:20:42.307Z,99.90
2023-06-30T10:23:15.158Z,99.90
2023-06-30T10:25:43.610Z,99.90
2023-06-30T10:28:11.582Z,99.90
2023-06-30T10:30:40.288Z,99.90
2023-06-30T10:33:07.802Z,99.90
2023-06-30T10:35:36.728Z,99.90
2023-06-30T10:38:04.792Z,99.90
2023-06-30T10:40:32.342Z,99.90
2023-06-30T10:43:00.306Z,99.90
2023-06-30T10:46:12.879Z,99.90
2023-06-30T10:48:41.453Z,99.90
2023-06-30T10:51:13.210Z,99.90
2023-06-30T10:53:44.983Z,99.90
2023-06-30T10:56:30.029Z,99.90
2023-06-30T10:59:00.049Z,99.90
2023-06-30T11:01:28.717Z,99.90
2023-06-30T11:03:59.642Z,99.90
2023-06-30T11:06:27.947Z,99.90
2023-06-30T11:09:10.870Z,99.90
2023-06-30T11:11:52.254Z,99.90
2023-06-30T11:14:36.148Z,99.90
2023-06-30T11:17:06.115Z,99.90
2023-06-30T11:19:36.379Z,99.90
2023-06-30T11:22:27.267Z,99.90
2023-06-30T11:24:54.950Z,99.90
2023-06-30T11:27:22.830Z,99.90
2023-06-30T11:29:54.094Z,99.90
2023-06-30T11:32:33.644Z,99.90
2023-06-30T11:35:09.144Z,99.90
2023-06-30T11:37:38.199Z,99.90
2023-06-30T11:40:07.752Z,99.90
2023-06-30T11:42:41.111Z,99.90
2023-06-30T11:45:09.046Z,99.90
2023-06-30T11:47:40.036Z,99.90
2023-06-30T11:50:09.610Z,99.90
2023-06-30T11:52:39.691Z,99.50
2023-06-30T11:55:14.090Z,97.10
2023-06-30T11:57:44.515Z,94.50
2023-06-30T12:00:23.684Z,93.40
2023-06-30T12:02:59.287Z,92.60
2023-06-30T12:05:28.603Z,90.80
2023-06-30T12:07:58.096Z,91.00
2023-06-30T12:10:40.084Z,89.60
2023-06-30T12:13:09.412Z,89.60
2023-06-30T12:15:38.513Z,86.40
2023-06-30T12:18:06.960Z,82.00
2023-06-30T12:20:40.264Z,78.50
2023-06-30T12:23:08.590Z,79.50
2023-06-30T12:25:37.532Z,79.30
2023-06-30T12:28:10.988Z,77.70
2023-06-30T12:30:39.539Z,72.50
2023-06-30T12:33:10.089Z,72.20
2023-06-30T12:35:40.897Z,71.90
2023-06-30T12:38:11.320Z,69.50
2023-06-30T12:40:39.554Z,69.40
2023-06-30T12:43:07.089Z,67.20
2023-06-30T12:45:35.665Z,66.30
2023-06-30T12:48:06.444Z,63.90
2023-06-30T12:50:37.080Z,63.20
2023-06-30T12:53:06.865Z,61.10
2023-06-30T12:55:34.280Z,60.60
2023-06-30T12:58:01.719Z,62.00
2023-06-30T13:00:29.201Z,62.20
2023-06-30T13:02:56.655Z,59.80
2023-06-30T13:05:24.146Z,59.50
2023-06-30T13:07:51.873Z,59.70
2023-06-30T13:10:19.353Z,59.30
2023-06-30T13:12:46.782Z,59.90
2023-06-30T13:15:14.199Z,57.60
2023-06-30T13:17:43.144Z,56.20
2023-06-30T13:20:11.073Z,56.60
2023-06-30T13:22:50.875Z,56.20
2023-06-30T13:25:26.180Z,54.60
2023-06-30T13:27:53.546Z,52.30
2023-06-30T13:30:20.985Z,52.60
2023-06-30T13:32:48.599Z,50.40
2023-06-30T13:35:16.059Z,51.00
2023-06-30T13:37:44.421Z,51.80
2023-06-30T13:40:14.559Z,50.70
2023-06-30T13:42:42.079Z,50.70
2023-06-30T13:45:11.283Z,51.80
2023-06-30T13:47:39.106Z,50.70
2023-06-30T13:50:07.399Z,53.10
2023-06-30T13:52:34.952Z,56.50
2023-06-30T13:55:02.437Z,59.50
2023-06-30T13:57:29.910Z,64.40
2023-06-30T13:59:57.425Z,66.70
2023-06-30T14:02:46.909Z,68.20
2023-06-30T14:05:20.351Z,69.40
2023-06-30T14:07:47.961Z,69.40
2023-06-30T14:10:15.419Z,71.30
2023-06-30T14:12:42.868Z,71.50
2023-06-30T14:15:10.875Z,71.20
2023-06-30T14:17:38.262Z,70.00
2023-06-30T14:20:06.511Z,69.80
2023-06-30T14:22:33.830Z,69.90
2023-06-30T14:25:01.148Z,70.40
2023-06-30T14:27:28.544Z,70.30
2023-06-30T14:29:55.947Z,69.60
2023-06-30T14:32:26.709Z,69.70
2023-06-30T14:34:54.127Z,69.60
2023-06-30T14:37:21.800Z,69.00
2023-06-30T14:39:49.186Z,69.10
2023-06-30T14:42:30.739Z,69.20
2023-06-30T14:44:58.784Z,69.10
2023-06-30T14:47:26.344Z,69.90
2023-06-30T14:49:54.826Z,70.60
2023-06-30T14:52:24.022Z,71.80
2023-06-30T14:54:51.501Z,69.40
2023-06-30T14:57:18.967Z,68.80
2023-06-30T14:59:46.392Z,70.00
2023-06-30T15:02:14.992Z,71.10
2023-06-30T15:04:42.606Z,71.60
2023-06-30T15:07:10.192Z,68.40
2023-06-30T15:09:38.262Z,70.00
2023-06-30T15:12:06.704Z,70.40
2023-06-30T15:14:34.745Z,69.00
2023-06-30T15:17:02.105Z,69.40
2023-06-30T15:19:29.664Z,69.10
2023-06-30T15:21:57.121Z,69.40
2023-06-30T15:24:24.673Z,68.30
2023-06-30T15:26:52.090Z,68.60
2023-06-30T15:29:19.724Z,70.60
2023-06-30T15:31:47.173Z,70.80
2023-06-30T15:34:14.793Z,72.60
2023-06-30T15:36:42.399Z,72.50
2023-06-30T15:39:09.848Z,72.80
2023-06-30T15:41:37.167Z,73.00
2023-06-30T15:44:04.992Z,73.50
2023-06-30T15:46:32.788Z,73.50
2023-06-30T15:49:00.978Z,73.50
2023-06-30T15:51:29.747Z,73.00
2023-06-30T15:53:57.279Z,73.20
2023-06-30T15:56:24.776Z,73.40
2023-06-30T15:58:52.283Z,75.10
2023-06-30T16:01:19.847Z,76.10
2023-06-30T16:03:47.398Z,76.10
2023-06-30T16:06:15.196Z,76.50
2023-06-30T16:08:42.749Z,75.10
2023-06-30T16:11:10.254Z,74.90
2023-06-30T16:13:37.545Z,75.40
2023-06-30T16:16:05.301Z,74.40
2023-06-30T16:18:32.788Z,74.90
2023-06-30T16:21:00.532Z,75.90
2023-06-30T16:23:28.049Z,75.20
2023-06-30T16:25:56.002Z,75.10
2023-06-30T16:28:24.700Z,75.70
2023-06-30T16:30:52.505Z,75.00
2023-06-30T16:33:20.483Z,74.40
2023-06-30T16:35:49.066Z,74.90
2023-06-30T16:38:17.002Z,74.80
2023-06-30T16:40:44.974Z,73.60
2023-06-30T16:43:12.384Z,74.00
2023-06-30T16:45:40.251Z,75.10
2023-06-30T16:48:07.792Z,74.80
2023-06-30T16:50:35.339Z,74.80
2023-06-30T16:53:03.069Z,74.50
2023-06-30T16:55:30.920Z,74.80
2023-06-30T16:57:59.344Z,74.90
2023-06-30T17:00:28.475Z,75.40
2023-06-30T17:02:56.681Z,75.40
2023-06-30T17:05:25.459Z,75.90
2023-06-30T17:07:53.699Z,74.70
2023-06-30T17:10:21.690Z,74.50
2023-06-30T17:12:50.045Z,73.60
2023-06-30T17:15:18.133Z,73.30
2023-06-30T17:17:45.857Z,73.10
2023-06-30T17:20:13.619Z,73.40
2023-06-30T17:22:41.682Z,75.40
2023-06-30T17:25:09.280Z,75.30
2023-06-30T17:27:36.865Z,76.00
2023-06-30T17:30:05.111Z,76.30
2023-06-30T17:32:32.666Z,77.30
2023-06-30T17:35:00.176Z,76.70
2023-06-30T17:37:28.235Z,76.00
2023-06-30T17:39:55.774Z,75.50
2023-06-30T17:42:23.333Z,76.70
2023-06-30T17:44:50.790Z,75.90
2023-06-30T17:47:18.200Z,76.00
2023-06-30T17:49:46.696Z,75.90
2023-06-30T17:52:15.986Z,76.80
2023-06-30T17:54:43.498Z,76.50
2023-06-30T17:57:10.829Z,77.60
2023-06-30T17:59:38.276Z,77.30
2023-06-30T18:02:06.737Z,78.30
2023-06-30T18:04:34.346Z,78.20
2023-06-30T18:07:09.556Z,78.60
2023-06-30T18:09:43.333Z,78.70
2023-06-30T18:12:12.134Z,78.60
2023-06-30T18:14:42.248Z,78.80
2023-06-30T18:17:09.930Z,79.20
2023-06-30T18:19:40.077Z,79.70
2023-06-30T18:22:08.938Z,79.10
2023-06-30T18:24:36.438Z,79.70
2023-06-30T18:27:04.339Z,80.00
2023-06-30T18:29:32.028Z,79.00
2023-06-30T18:32:00.937Z,80.40
2023-06-30T18:34:28.806Z,79.60
2023-06-30T18:36:56.200Z,81.50
2023-06-30T18:39:23.566Z,79.70
2023-06-30T18:41:58.162Z,80.60
2023-06-30T18:44:28.488Z,80.40
2023-06-30T18:46:55.782Z,80.40
2023-06-30T18:49:25.825Z,80.30
2023-06-30T18:51:55.140Z,80.80
2023-06-30T18:54:23.340Z,80.70
2023-06-30T18:56:50.936Z,80.90
2023-06-30T18:59:18.485Z,81.30
2023-06-30T19:01:46.078Z,81.70
2023-06-30T19:04:13.860Z,82.20
2023-06-30T19:06:42.094Z,83.00
2023-06-30T19:09:09.807Z,84.60
2023-06-30T19:11:37.533Z,84.60
2023-06-30T19:14:05.126Z,84.70
2023-06-30T19:16:32.834Z,85.70
2023-06-30T19:19:00.463Z,87.60
2023-06-30T19:21:27.922Z,86.50
2023-06-30T19:23:55.365Z,86.30
2023-06-30T19:26:24.412Z,87.60
2023-06-30T19:28:52.039Z,89.00
2023-06-30T19:31:22.092Z,89.60
2023-06-30T19:33:49.536Z,90.30
2023-06-30T19:36:16.979Z,90.40
2023-06-30T19:38:44.644Z,90.60
2023-06-30T19:41:13.565Z,90.90
2023-06-30T19:43:41.238Z,91.40
2023-06-30T19:46:08.976Z,91.60
2023-06-30T19:48:36.316Z,92.00
2023-06-30T19:51:03.711Z,92.20
2023-06-30T19:53:32.978Z,92.80
2023-06-30T19:56:00.535Z,93.30
2023-06-30T19:58:28.050Z,93.80
2023-06-30T20:00:55.653Z,94.60
2023-06-30T20:03:23.244Z,95.10
2023-06-30T20:05:50.725Z,95.30
2023-06-30T20:08:19.553Z,95.60
2023-06-30T20:10:47.008Z,96.00
2023-06-30T20:13:14.336Z,96.30
2023-06-30T20:15:41.713Z,96.60
2023-06-30T20:18:09.292Z,97.10
2023-06-30T20:20:37.043Z,97.50
2023-06-30T20:23:04.495Z,98.00
2023-06-30T20:25:33.950Z,98.20
2023-06-30T20:28:01.460Z,98.70
2023-06-30T20:30:29.220Z,99.40
2023-06-30T20:32:56.625Z,99.70
2023-06-30T20:35:24.014Z,99.90
2023-06-30T20:37:51.428Z,99.90
2023-06-30T20:40:19.016Z,99.90
2023-06-30T20:42:46.520Z,99.90
2023-06-30T20:45:13.798Z,99.90
2023-06-30T20:47:41.256Z,99.90
2023-06-30T20:50:10.167Z,99.40
2023-06-30T20:52:38.145Z,99.10
2023-06-30T20:55:06.220Z,99.90
2023-06-30T20:57:34.164Z,99.90
2023-06-30T21:00:01.599Z,99.90
2023-06-30T21:02:29.161Z,99.90
2023-06-30T21:04:58.650Z,99.90
2023-06-30T21:07:26.653Z,99.90
2023-06-30T21:09:54.107Z,99.90
2023-06-30T21:12:21.617Z,99.90
2023-06-30T21:14:49.204Z,99.90
2023-06-30T21:17:16.926Z,99.90
2023-06-30T21:19:44.724Z,99.90
2023-06-30T21:22:12.380Z,99.90
2023-06-30T21:24:39.886Z,99.90
2023-06-30T21:27:07.618Z,99.90
2023-06-30T21:29:35.051Z,99.90
2023-06-30T21:32:02.815Z,99.90
2023-06-30T21:34:31.867Z,99.90
2023-06-30T21:36:59.592Z,99.90
2023-06-30T21:39:27.143Z,99.90
2023-06-30T21:41:54.583Z,99.90
2023-06-30T21:44:21.961Z,99.90
2023-06-30T21:46:49.791Z,99.90
2023-06-30T21:49:17.165Z,99.90
2023-06-30T21:51:44.620Z,99.90
2023-06-30T21:56:41.180Z,99.90
2023-06-30T21:59:08.648Z,99.90
2023-06-30T22:01:40.832Z,99.90
2023-06-30T22:04:09.669Z,99.90
2023-06-30T22:06:37.657Z,99.90
2023-06-30T22:09:15.183Z,99.90
2023-06-30T22:11:44.419Z,99.90
2023-06-30T22:14:13.544Z,99.90
2023-06-30T22:16:41.214Z,99.90
2023-06-30T22:19:08.681Z,99.90
2023-06-30T22:21:36.291Z,99.90
2023-06-30T22:24:03.891Z,99.90
2023-06-30T22:26:31.317Z,99.90
2023-06-30T22:28:59.015Z,99.90
2023-06-30T22:31:26.811Z,99.90
2023-06-30T22:33:54.336Z,99.90
2023-06-30T22:36:21.972Z,99.90
2023-06-30T22:38:50.606Z,99.90
2023-06-30T22:41:18.131Z,99.90
2023-06-30T22:43:45.898Z,99.90
2023-06-30T22:46:13.326Z,99.90
2023-06-30T22:48:41.754Z,99.90
2023-06-30T22:51:09.474Z,99.90
2023-06-30T22:53:37.072Z,99.90
2023-06-30T22:56:07.497Z,99.90
2023-06-30T22:58:35.182Z,99.90
2023-06-30T23:01:02.887Z,99.90
2023-06-30T23:03:30.607Z,99.90
2023-06-30T23:05:58.759Z,99.90
2023-06-30T23:08:26.219Z,99.90
2023-06-30T23:10:54.195Z,99.90
2023-06-30T23:13:21.853Z,99.90
2023-06-30T23:16:14.544Z,99.90
2023-06-30T23:18:41.803Z,99.90
2023-06-30T23:21:11.842Z,99.90
2023-06-30T23:23:43.782Z,99.90
2023-06-30T23:26:12.727Z,99.90
2023-06-30T23:28:50.407Z,99.90
2023-06-30T23:31:20.467Z,99.90
2023-06-30T23:33:53.338Z,99.90
2023-06-30T23:36:21.268Z,99.90
2023-06-30T23:38:48.461Z,99.90
2023-06-30T23:41:15.806Z,99.90
2023-06-30T23:43:42.945Z,99.90
2023-06-30T23:46:19.091Z,99.90
2023-06-30T23:48:50.777Z,99.90
2023-06-30T23:51:18.314Z,99.90
2023-06-30T23:53:45.490Z,99.90
2023-06-30T23:56:12.894Z,99.90
2023-06-30T23:58:40.101Z,99.90
